sensor_id;sensor_type;location;lat;lon;timestamp;P1;durP1;ratioP1;P2;durP2;ratioP2
19456;SDS011;9867;48.094;11.478;2023-01-19T00:02:21;14.77;;;12.03;;
19456;SDS011;9867;48.094;11.478;2023-01-19T00:04:48;14.70;;;11.07;;
19456;SDS011;9867;48.094;11.478;2023-01-19T00:07:14;11.10;;;9.90;;
19456;SDS011;9867;48.094;11.478;2023-01-19T00:09:42;11.37;;;10.10;;
19456;SDS011;9867;48.094;11.478;2023-01-19T00:12:08;12.80;;;11.60;;
19456;SDS011;9867;48.094;11.478;2023-01-19T00:14:35;10.77;;;9.50;;
19456;SDS011;9867;48.094;11.478;2023-01-19T00:17:01;12.00;;;10.23;;
19456;SDS011;9867;48.094;11.478;2023-01-19T00:19:28;13.63;;;10.10;;
19456;SDS011;9867;48.094;11.478;2023-01-19T00:21:55;11.97;;;10.03;;
19456;SDS011;9867;48.094;11.478;2023-01-19T00:24:21;13.13;;;9.80;;
19456;SDS011;9867;48.094;11.478;2023-01-19T00:26:48;13.70;;;11.30;;
19456;SDS011;9867;48.094;11.478;2023-01-19T00:29:15;13.03;;;11.10;;
19456;SDS011;9867;48.094;11.478;2023-01-19T00:31:41;13.30;;;11.67;;
19456;SDS011;9867;48.094;11.478;2023-01-19T00:34:08;10.30;;;8.97;;
19456;SDS011;9867;48.094;11.478;2023-01-19T00:36:34;10.27;;;7.40;;
19456;SDS011;9867;48.094;11.478;2023-01-19T00:39:01;8.93;;;7.93;;
19456;SDS011;9867;48.094;11.478;2023-01-19T00:41:27;8.17;;;7.37;;
19456;SDS011;9867;48.094;11.478;2023-01-19T00:44:09;10.90;;;9.50;;
19456;SDS011;9867;48.094;11.478;2023-01-19T00:46:36;11.47;;;10.27;;
19456;SDS011;9867;48.094;11.478;2023-01-19T00:49:02;9.13;;;8.23;;
19456;SDS011;9867;48.094;11.478;2023-01-19T00:51:29;10.67;;;8.57;;
19456;SDS011;9867;48.094;11.478;2023-01-19T00:53:55;9.07;;;7.80;;
19456;SDS011;9867;48.094;11.478;2023-01-19T00:56:22;9.77;;;8.30;;
19456;SDS011;9867;48.094;11.478;2023-01-19T00:58:49;8.80;;;7.90;;
19456;SDS011;9867;48.094;11.478;2023-01-19T01:01:16;10.47;;;8.40;;
19456;SDS011;9867;48.094;11.478;2023-01-19T01:03:43;10.57;;;8.10;;
19456;SDS011;9867;48.094;11.478;2023-01-19T01:06:09;8.97;;;7.97;;
19456;SDS011;9867;48.094;11.478;2023-01-19T01:08:36;9.33;;;8.10;;
19456;SDS011;9867;48.094;11.478;2023-01-19T01:11:02;9.27;;;7.87;;
19456;SDS011;9867;48.094;11.478;2023-01-19T01:13:29;9.80;;;8.80;;
19456;SDS011;9867;48.094;11.478;2023-01-19T01:15:56;9.50;;;8.57;;
19456;SDS011;9867;48.094;11.478;2023-01-19T01:18:23;10.83;;;8.93;;
19456;SDS011;9867;48.094;11.478;2023-01-19T01:20:50;9.97;;;8.73;;
19456;SDS011;9867;48.094;11.478;2023-01-19T01:23:18;9.10;;;7.57;;
19456;SDS011;9867;48.094;11.478;2023-01-19T01:25:47;9.67;;;8.73;;
19456;SDS011;9867;48.094;11.478;2023-01-19T01:28:13;9.27;;;8.20;;
19456;SDS011;9867;48.094;11.478;2023-01-19T01:30:40;10.60;;;8.50;;
19456;SDS011;9867;48.094;11.478;2023-01-19T01:33:07;8.70;;;7.77;;
19456;SDS011;9867;48.094;11.478;2023-01-19T01:35:36;9.80;;;8.63;;
19456;SDS011;9867;48.094;11.478;2023-01-19T01:38:03;10.73;;;9.13;;
19456;SDS011;9867;48.094;11.478;2023-01-19T01:40:29;10.43;;;9.23;;
19456;SDS011;9867;48.094;11.478;2023-01-19T01:42:56;9.63;;;8.37;;
19456;SDS011;9867;48.094;11.478;2023-01-19T01:45:25;9.53;;;8.53;;
19456;SDS011;9867;48.094;11.478;2023-01-19T01:47:56;9.73;;;8.67;;
19456;SDS011;9867;48.094;11.478;2023-01-19T01:50:26;9.87;;;7.87;;
19456;SDS011;9867;48.094;11.478;2023-01-19T01:52:56;8.30;;;6.97;;
19456;SDS011;9867;48.094;11.478;2023-01-19T01:55:33;9.83;;;8.70;;
19456;SDS011;9867;48.094;11.478;2023-01-19T01:58:02;9.57;;;7.70;;
19456;SDS011;9867;48.094;11.478;2023-01-19T02:00:30;9.73;;;7.23;;
19456;SDS011;9867;48.094;11.478;2023-01-19T02:03:17;10.20;;;7.20;;
19456;SDS011;9867;48.094;11.478;2023-01-19T02:05:44;8.40;;;7.50;;
19456;SDS011;9867;48.094;11.478;2023-01-19T02:08:13;7.20;;;6.20;;
19456;SDS011;9867;48.094;11.478;2023-01-19T02:11:02;8.10;;;7.17;;
19456;SDS011;9867;48.094;11.478;2023-01-19T02:13:47;8.20;;;7.30;;
19456;SDS011;9867;48.094;11.478;2023-01-19T02:16:15;9.37;;;6.90;;
19456;SDS011;9867;48.094;11.478;2023-01-19T02:18:42;6.03;;;5.53;;
19456;SDS011;9867;48.094;11.478;2023-01-19T02:21:10;7.07;;;5.93;;
19456;SDS011;9867;48.094;11.478;2023-01-19T02:23:41;7.73;;;5.27;;
19456;SDS011;9867;48.094;11.478;2023-01-19T02:26:11;7.97;;;5.73;;
19456;SDS011;9867;48.094;11.478;2023-01-19T02:28:41;6.20;;;5.30;;
19456;SDS011;9867;48.094;11.478;2023-01-19T02:31:11;9.37;;;6.10;;
19456;SDS011;9867;48.094;11.478;2023-01-19T02:33:40;7.20;;;6.40;;
19456;SDS011;9867;48.094;11.478;2023-01-19T02:36:07;7.80;;;6.10;;
19456;SDS011;9867;48.094;11.478;2023-01-19T02:38:36;6.80;;;6.03;;
19456;SDS011;9867;48.094;11.478;2023-01-19T02:41:05;7.83;;;7.10;;
19456;SDS011;9867;48.094;11.478;2023-01-19T02:43:34;6.90;;;6.23;;
19456;SDS011;9867;48.094;11.478;2023-01-19T02:46:02;7.27;;;6.37;;
19456;SDS011;9867;48.094;11.478;2023-01-19T02:48:29;7.97;;;7.23;;
19456;SDS011;9867;48.094;11.478;2023-01-19T02:50:56;7.70;;;7.00;;
19456;SDS011;9867;48.094;11.478;2023-01-19T02:53:41;9.20;;;7.43;;
19456;SDS011;9867;48.094;11.478;2023-01-19T02:56:30;8.13;;;7.40;;
19456;SDS011;9867;48.094;11.478;2023-01-19T02:59:05;9.13;;;8.33;;
19456;SDS011;9867;48.094;11.478;2023-01-19T03:01:41;9.30;;;8.30;;
19456;SDS011;9867;48.094;11.478;2023-01-19T03:04:22;7.73;;;7.00;;
19456;SDS011;9867;48.094;11.478;2023-01-19T03:06:59;9.67;;;8.77;;
19456;SDS011;9867;48.094;11.478;2023-01-19T03:09:34;9.63;;;8.73;;
19456;SDS011;9867;48.094;11.478;2023-01-19T03:12:09;9.63;;;7.63;;
19456;SDS011;9867;48.094;11.478;2023-01-19T03:14:46;8.00;;;7.20;;
19456;SDS011;9867;48.094;11.478;2023-01-19T03:17:14;8.90;;;7.93;;
19456;SDS011;9867;48.094;11.478;2023-01-19T03:19:42;9.10;;;8.30;;
19456;SDS011;9867;48.094;11.478;2023-01-19T03:22:18;10.73;;;9.27;;
19456;SDS011;9867;48.094;11.478;2023-01-19T03:24:50;9.20;;;8.30;;
19456;SDS011;9867;48.094;11.478;2023-01-19T03:27:22;10.10;;;8.73;;
19456;SDS011;9867;48.094;11.478;2023-01-19T03:29:52;9.80;;;8.60;;
19456;SDS011;9867;48.094;11.478;2023-01-19T03:32:24;9.10;;;8.20;;
19456;SDS011;9867;48.094;11.478;2023-01-19T03:34:58;9.73;;;8.63;;
19456;SDS011;9867;48.094;11.478;2023-01-19T03:37:26;9.33;;;7.60;;
19456;SDS011;9867;48.094;11.478;2023-01-19T03:39:55;8.40;;;7.53;;
19456;SDS011;9867;48.094;11.478;2023-01-19T03:42:23;9.27;;;7.73;;
19456;SDS011;9867;48.094;11.478;2023-01-19T03:44:52;8.03;;;7.23;;
19456;SDS011;9867;48.094;11.478;2023-01-19T03:47:21;9.13;;;7.73;;
19456;SDS011;9867;48.094;11.478;2023-01-19T03:49:48;9.67;;;8.77;;
19456;SDS011;9867;48.094;11.478;2023-01-19T03:52:24;10.17;;;8.97;;
19456;SDS011;9867;48.094;11.478;2023-01-19T03:54:52;11.67;;;8.47;;
19456;SDS011;9867;48.094;11.478;2023-01-19T03:57:18;8.67;;;7.77;;
19456;SDS011;9867;48.094;11.478;2023-01-19T03:59:45;10.63;;;8.27;;
19456;SDS011;9867;48.094;11.478;2023-01-19T04:02:12;10.43;;;8.30;;
19456;SDS011;9867;48.094;11.478;2023-01-19T04:04:39;10.80;;;9.80;;
19456;SDS011;9867;48.094;11.478;2023-01-19T04:07:07;11.23;;;10.13;;
19456;SDS011;9867;48.094;11.478;2023-01-19T04:09:34;10.10;;;9.10;;
19456;SDS011;9867;48.094;11.478;2023-01-19T04:12:01;8.87;;;8.07;;
19456;SDS011;9867;48.094;11.478;2023-01-19T04:14:28;9.27;;;8.27;;
19456;SDS011;9867;48.094;11.478;2023-01-19T04:16:55;11.50;;;8.20;;
19456;SDS011;9867;48.094;11.478;2023-01-19T04:19:21;10.30;;;9.30;;
19456;SDS011;9867;48.094;11.478;2023-01-19T04:21:48;10.23;;;9.33;;
19456;SDS011;9867;48.094;11.478;2023-01-19T04:24:15;10.87;;;9.67;;
19456;SDS011;9867;48.094;11.478;2023-01-19T04:26:41;10.53;;;9.57;;
19456;SDS011;9867;48.094;11.478;2023-01-19T04:29:08;11.00;;;10.00;;
19456;SDS011;9867;48.094;11.478;2023-01-19T04:31:34;11.40;;;10.27;;
19456;SDS011;9867;48.094;11.478;2023-01-19T04:34:02;11.30;;;10.10;;
19456;SDS011;9867;48.094;11.478;2023-01-19T04:36:28;10.83;;;8.80;;
19456;SDS011;9867;48.094;11.478;2023-01-19T04:38:56;10.80;;;9.27;;
19456;SDS011;9867;48.094;11.478;2023-01-19T04:41:22;9.63;;;8.73;;
19456;SDS011;9867;48.094;11.478;2023-01-19T04:43:48;11.10;;;10.00;;
19456;SDS011;9867;48.094;11.478;2023-01-19T04:46:15;11.67;;;10.67;;
19456;SDS011;9867;48.094;11.478;2023-01-19T04:48:42;12.47;;;11.10;;
19456;SDS011;9867;48.094;11.478;2023-01-19T04:51:09;11.40;;;10.40;;
19456;SDS011;9867;48.094;11.478;2023-01-19T04:53:36;12.10;;;10.90;;
19456;SDS011;9867;48.094;11.478;2023-01-19T04:56:03;10.90;;;9.80;;
19456;SDS011;9867;48.094;11.478;2023-01-19T04:58:29;13.00;;;11.80;;
19456;SDS011;9867;48.094;11.478;2023-01-19T05:00:56;12.20;;;11.00;;
19456;SDS011;9867;48.094;11.478;2023-01-19T05:03:22;12.87;;;11.67;;
19456;SDS011;9867;48.094;11.478;2023-01-19T05:05:51;13.47;;;12.13;;
19456;SDS011;9867;48.094;11.478;2023-01-19T05:08:18;13.90;;;10.20;;
19456;SDS011;9867;48.094;11.478;2023-01-19T05:10:46;12.03;;;10.83;;
19456;SDS011;9867;48.094;11.478;2023-01-19T05:13:13;13.17;;;11.80;;
19456;SDS011;9867;48.094;11.478;2023-01-19T05:15:39;11.87;;;10.40;;
19456;SDS011;9867;48.094;11.478;2023-01-19T05:18:06;11.30;;;10.20;;
19456;SDS011;9867;48.094;11.478;2023-01-19T05:20:32;12.37;;;10.90;;
19456;SDS011;9867;48.094;11.478;2023-01-19T05:22:58;10.77;;;9.67;;
19456;SDS011;9867;48.094;11.478;2023-01-19T05:25:26;13.03;;;11.70;;
19456;SDS011;9867;48.094;11.478;2023-01-19T05:27:53;13.33;;;10.87;;
19456;SDS011;9867;48.094;11.478;2023-01-19T05:30:20;10.47;;;9.47;;
19456;SDS011;9867;48.094;11.478;2023-01-19T05:32:46;11.87;;;10.27;;
19456;SDS011;9867;48.094;11.478;2023-01-19T05:35:13;11.53;;;10.33;;
19456;SDS011;9867;48.094;11.478;2023-01-19T05:37:48;16.20;;;12.53;;
19456;SDS011;9867;48.094;11.478;2023-01-19T05:40:17;14.23;;;11.37;;
19456;SDS011;9867;48.094;11.478;2023-01-19T05:42:46;13.90;;;12.50;;
19456;SDS011;9867;48.094;11.478;2023-01-19T05:45:13;14.43;;;12.20;;
19456;SDS011;9867;48.094;11.478;2023-01-19T05:47:39;12.73;;;10.70;;
19456;SDS011;9867;48.094;11.478;2023-01-19T05:50:06;13.73;;;12.13;;
19456;SDS011;9867;48.094;11.478;2023-01-19T05:52:33;16.70;;;13.60;;
19456;SDS011;9867;48.094;11.478;2023-01-19T05:55:00;15.37;;;13.70;;
19456;SDS011;9867;48.094;11.478;2023-01-19T05:57:26;14.90;;;13.23;;
19456;SDS011;9867;48.094;11.478;2023-01-19T05:59:53;17.17;;;14.83;;
19456;SDS011;9867;48.094;11.478;2023-01-19T06:02:20;16.13;;;14.43;;
19456;SDS011;9867;48.094;11.478;2023-01-19T06:04:53;21.30;;;16.80;;
19456;SDS011;9867;48.094;11.478;2023-01-19T06:07:19;14.50;;;12.93;;
19456;SDS011;9867;48.094;11.478;2023-01-19T06:09:47;14.77;;;12.53;;
19456;SDS011;9867;48.094;11.478;2023-01-19T06:12:13;12.27;;;10.63;;
19456;SDS011;9867;48.094;11.478;2023-01-19T06:14:40;13.53;;;11.23;;
19456;SDS011;9867;48.094;11.478;2023-01-19T06:17:07;14.87;;;13.43;;
19456;SDS011;9867;48.094;11.478;2023-01-19T06:19:36;15.33;;;13.77;;
19456;SDS011;9867;48.094;11.478;2023-01-19T06:22:02;15.00;;;13.53;;
19456;SDS011;9867;48.094;11.478;2023-01-19T06:24:29;14.43;;;11.73;;
19456;SDS011;9867;48.094;11.478;2023-01-19T06:26:55;14.87;;;12.47;;
19456;SDS011;9867;48.094;11.478;2023-01-19T06:29:25;16.33;;;11.50;;
19456;SDS011;9867;48.094;11.478;2023-01-19T06:31:54;12.43;;;10.90;;
19456;SDS011;9867;48.094;11.478;2023-01-19T06:34:21;12.17;;;10.87;;
19456;SDS011;9867;48.094;11.478;2023-01-19T06:36:51;11.83;;;10.57;;
19456;SDS011;9867;48.094;11.478;2023-01-19T06:39:18;12.00;;;10.80;;
19456;SDS011;9867;48.094;11.478;2023-01-19T06:41:44;14.27;;;12.73;;
19456;SDS011;9867;48.094;11.478;2023-01-19T06:44:11;16.10;;;12.03;;
19456;SDS011;9867;48.094;11.478;2023-01-19T06:46:37;15.77;;;14.00;;
19456;SDS011;9867;48.094;11.478;2023-01-19T06:49:04;14.30;;;12.90;;
19456;SDS011;9867;48.094;11.478;2023-01-19T06:51:31;14.40;;;12.90;;
19456;SDS011;9867;48.094;11.478;2023-01-19T06:53:57;13.53;;;11.20;;
19456;SDS011;9867;48.094;11.478;2023-01-19T06:56:24;13.23;;;11.80;;
19456;SDS011;9867;48.094;11.478;2023-01-19T06:58:52;14.43;;;12.47;;
19456;SDS011;9867;48.094;11.478;2023-01-19T07:01:19;12.57;;;10.60;;
19456;SDS011;9867;48.094;11.478;2023-01-19T07:03:46;16.57;;;13.80;;
19456;SDS011;9867;48.094;11.478;2023-01-19T07:06:12;12.87;;;11.50;;
19456;SDS011;9867;48.094;11.478;2023-01-19T07:08:41;17.80;;;12.93;;
19456;SDS011;9867;48.094;11.478;2023-01-19T07:11:08;13.93;;;12.27;;
19456;SDS011;9867;48.094;11.478;2023-01-19T07:13:56;15.33;;;11.17;;
19456;SDS011;9867;48.094;11.478;2023-01-19T07:16:22;16.83;;;12.93;;
19456;SDS011;9867;48.094;11.478;2023-01-19T07:18:49;14.60;;;13.07;;
19456;SDS011;9867;48.094;11.478;2023-01-19T07:21:16;13.73;;;12.43;;
19456;SDS011;9867;48.094;11.478;2023-01-19T07:23:43;14.33;;;11.37;;
19456;SDS011;9867;48.094;11.478;2023-01-19T07:26:10;12.40;;;11.17;;
19456;SDS011;9867;48.094;11.478;2023-01-19T07:28:36;15.23;;;11.53;;
19456;SDS011;9867;48.094;11.478;2023-01-19T07:31:03;14.17;;;12.63;;
19456;SDS011;9867;48.094;11.478;2023-01-19T07:33:29;13.20;;;12.00;;
19456;SDS011;9867;48.094;11.478;2023-01-19T07:35:56;14.93;;;12.03;;
19456;SDS011;9867;48.094;11.478;2023-01-19T07:38:22;13.23;;;11.83;;
19456;SDS011;9867;48.094;11.478;2023-01-19T07:40:50;11.50;;;10.30;;
19456;SDS011;9867;48.094;11.478;2023-01-19T07:43:16;10.40;;;9.30;;
19456;SDS011;9867;48.094;11.478;2023-01-19T07:45:42;11.60;;;10.30;;
19456;SDS011;9867;48.094;11.478;2023-01-19T07:48:10;12.77;;;10.70;;
19456;SDS011;9867;48.094;11.478;2023-01-19T07:50:36;13.67;;;9.80;;
19456;SDS011;9867;48.094;11.478;2023-01-19T07:53:03;13.00;;;11.70;;
19456;SDS011;9867;48.094;11.478;2023-01-19T07:55:31;13.57;;;12.27;;
19456;SDS011;9867;48.094;11.478;2023-01-19T07:57:58;12.63;;;10.17;;
19456;SDS011;9867;48.094;11.478;2023-01-19T08:00:24;10.20;;;8.97;;
19456;SDS011;9867;48.094;11.478;2023-01-19T08:02:51;12.20;;;10.90;;
19456;SDS011;9867;48.094;11.478;2023-01-19T08:05:18;10.83;;;9.73;;
19456;SDS011;9867;48.094;11.478;2023-01-19T08:07:45;13.07;;;11.67;;
19456;SDS011;9867;48.094;11.478;2023-01-19T08:10:13;13.73;;;12.23;;
19456;SDS011;9867;48.094;11.478;2023-01-19T08:12:40;12.30;;;11.20;;
19456;SDS011;9867;48.094;11.478;2023-01-19T08:15:08;11.60;;;9.37;;
19456;SDS011;9867;48.094;11.478;2023-01-19T08:17:35;11.20;;;9.73;;
19456;SDS011;9867;48.094;11.478;2023-01-19T08:20:02;10.27;;;9.27;;
19456;SDS011;9867;48.094;11.478;2023-01-19T08:22:29;11.87;;;10.00;;
19456;SDS011;9867;48.094;11.478;2023-01-19T08:24:56;14.20;;;10.63;;
19456;SDS011;9867;48.094;11.478;2023-01-19T08:27:22;14.60;;;12.30;;
19456;SDS011;9867;48.094;11.478;2023-01-19T08:29:49;13.30;;;12.00;;
19456;SDS011;9867;48.094;11.478;2023-01-19T08:32:16;16.40;;;13.93;;
19456;SDS011;9867;48.094;11.478;2023-01-19T08:34:42;15.50;;;13.63;;
19456;SDS011;9867;48.094;11.478;2023-01-19T08:37:09;12.50;;;11.17;;
19456;SDS011;9867;48.094;11.478;2023-01-19T08:39:35;10.83;;;9.37;;
19456;SDS011;9867;48.094;11.478;2023-01-19T08:42:01;11.30;;;9.07;;
19456;SDS011;9867;48.094;11.478;2023-01-19T08:44:28;14.83;;;12.47;;
19456;SDS011;9867;48.094;11.478;2023-01-19T08:46:55;10.60;;;9.47;;
19456;SDS011;9867;48.094;11.478;2023-01-19T08:49:22;11.27;;;10.17;;
19456;SDS011;9867;48.094;11.478;2023-01-19T08:51:48;12.57;;;10.67;;
19456;SDS011;9867;48.094;11.478;2023-01-19T08:54:14;11.80;;;10.00;;
19456;SDS011;9867;48.094;11.478;2023-01-19T08:56:43;12.17;;;10.20;;
19456;SDS011;9867;48.094;11.478;2023-01-19T08:59:10;11.40;;;9.70;;
19456;SDS011;9867;48.094;11.478;2023-01-19T09:01:39;11.50;;;10.13;;
19456;SDS011;9867;48.094;11.478;2023-01-19T09:04:06;10.80;;;9.10;;
19456;SDS011;9867;48.094;11.478;2023-01-19T09:06:33;10.63;;;9.20;;
19456;SDS011;9867;48.094;11.478;2023-01-19T09:08:59;12.07;;;10.63;;
19456;SDS011;9867;48.094;11.478;2023-01-19T09:11:26;10.10;;;9.10;;
19456;SDS011;9867;48.094;11.478;2023-01-19T09:13:52;10.77;;;9.27;;
19456;SDS011;9867;48.094;11.478;2023-01-19T09:16:19;9.60;;;8.63;;
19456;SDS011;9867;48.094;11.478;2023-01-19T09:18:45;11.37;;;9.90;;
19456;SDS011;9867;48.094;11.478;2023-01-19T09:21:12;9.43;;;8.53;;
19456;SDS011;9867;48.094;11.478;2023-01-19T09:23:40;11.03;;;9.93;;
19456;SDS011;9867;48.094;11.478;2023-01-19T09:26:06;12.50;;;9.77;;
19456;SDS011;9867;48.094;11.478;2023-01-19T09:28:33;10.70;;;8.83;;
19456;SDS011;9867;48.094;11.478;2023-01-19T09:31:02;10.90;;;9.80;;
19456;SDS011;9867;48.094;11.478;2023-01-19T09:33:30;8.47;;;7.63;;
19456;SDS011;9867;48.094;11.478;2023-01-19T09:35:58;9.67;;;8.67;;
19456;SDS011;9867;48.094;11.478;2023-01-19T09:38:24;10.07;;;8.40;;
19456;SDS011;9867;48.094;11.478;2023-01-19T09:40:52;10.87;;;8.67;;
19456;SDS011;9867;48.094;11.478;2023-01-19T09:43:25;9.43;;;8.43;;
19456;SDS011;9867;48.094;11.478;2023-01-19T09:46:00;10.07;;;9.07;;
19456;SDS011;9867;48.094;11.478;2023-01-19T09:48:31;9.97;;;8.93;;
19456;SDS011;9867;48.094;11.478;2023-01-19T09:51:09;9.20;;;8.40;;
19456;SDS011;9867;48.094;11.478;2023-01-19T09:53:58;9.60;;;8.27;;
19456;SDS011;9867;48.094;11.478;2023-01-19T09:56:31;9.47;;;8.30;;
19456;SDS011;9867;48.094;11.478;2023-01-19T09:58:58;8.53;;;7.80;;
19456;SDS011;9867;48.094;11.478;2023-01-19T10:01:33;10.20;;;8.50;;
19456;SDS011;9867;48.094;11.478;2023-01-19T10:06:57;8.93;;;8.03;;
19456;SDS011;9867;48.094;11.478;2023-01-19T10:09:32;9.87;;;7.90;;
19456;SDS011;9867;48.094;11.478;2023-01-19T10:12:07;9.47;;;8.47;;
19456;SDS011;9867;48.094;11.478;2023-01-19T10:14:42;9.57;;;7.67;;
19456;SDS011;9867;48.094;11.478;2023-01-19T10:17:16;8.73;;;7.83;;
19456;SDS011;9867;48.094;11.478;2023-01-19T10:19:52;9.67;;;7.27;;
19456;SDS011;9867;48.094;11.478;2023-01-19T10:22:21;8.57;;;7.57;;
19456;SDS011;9867;48.094;11.478;2023-01-19T10:24:50;8.97;;;6.93;;
19456;SDS011;9867;48.094;11.478;2023-01-19T10:27:22;9.10;;;8.17;;
19456;SDS011;9867;48.094;11.478;2023-01-19T10:29:51;10.63;;;7.90;;
19456;SDS011;9867;48.094;11.478;2023-01-19T10:32:19;8.07;;;7.17;;
19456;SDS011;9867;48.094;11.478;2023-01-19T10:34:47;11.93;;;8.00;;
19456;SDS011;9867;48.094;11.478;2023-01-19T10:37:16;6.80;;;6.10;;
19456;SDS011;9867;48.094;11.478;2023-01-19T10:39:50;10.20;;;8.40;;
19456;SDS011;9867;48.094;11.478;2023-01-19T10:42:19;7.87;;;6.70;;
19456;SDS011;9867;48.094;11.478;2023-01-19T10:44:46;7.97;;;7.17;;
19456;SDS011;9867;48.094;11.478;2023-01-19T10:47:15;7.70;;;6.90;;
19456;SDS011;9867;48.094;11.478;2023-01-19T10:49:43;7.87;;;6.80;;
19456;SDS011;9867;48.094;11.478;2023-01-19T10:52:18;8.17;;;6.60;;
19456;SDS011;9867;48.094;11.478;2023-01-19T10:54:49;9.23;;;6.53;;
19456;SDS011;9867;48.094;11.478;2023-01-19T10:57:20;6.90;;;6.30;;
19456;SDS011;9867;48.094;11.478;2023-01-19T10:59:53;6.60;;;6.00;;
19456;SDS011;9867;48.094;11.478;2023-01-19T11:02:20;7.33;;;6.63;;
19456;SDS011;9867;48.094;11.478;2023-01-19T11:04:49;6.57;;;5.87;;
19456;SDS011;9867;48.094;11.478;2023-01-19T11:07:21;6.63;;;5.30;;
19456;SDS011;9867;48.094;11.478;2023-01-19T11:09:49;6.20;;;5.53;;
19456;SDS011;9867;48.094;11.478;2023-01-19T11:12:38;6.43;;;5.83;;
19456;SDS011;9867;48.094;11.478;2023-01-19T11:15:11;5.30;;;4.80;;
19456;SDS011;9867;48.094;11.478;2023-01-19T11:17:40;6.30;;;5.37;;
19456;SDS011;9867;48.094;11.478;2023-01-19T11:20:16;5.60;;;5.10;;
19456;SDS011;9867;48.094;11.478;2023-01-19T11:22:45;6.40;;;5.20;;
19456;SDS011;9867;48.094;11.478;2023-01-19T11:25:19;6.50;;;5.30;;
19456;SDS011;9867;48.094;11.478;2023-01-19T11:27:51;5.60;;;5.00;;
19456;SDS011;9867;48.094;11.478;2023-01-19T11:30:19;6.30;;;5.40;;
19456;SDS011;9867;48.094;11.478;2023-01-19T11:32:49;5.83;;;5.33;;
19456;SDS011;9867;48.094;11.478;2023-01-19T11:38:14;6.90;;;5.67;;
19456;SDS011;9867;48.094;11.478;2023-01-19T11:40:45;4.93;;;4.53;;
19456;SDS011;9867;48.094;11.478;2023-01-19T11:43:19;6.27;;;4.83;;
19456;SDS011;9867;48.094;11.478;2023-01-19T11:45:47;8.10;;;5.10;;
19456;SDS011;9867;48.094;11.478;2023-01-19T11:48:16;5.60;;;5.10;;
19456;SDS011;9867;48.094;11.478;2023-01-19T11:50:47;5.93;;;5.33;;
19456;SDS011;9867;48.094;11.478;2023-01-19T11:53:16;6.27;;;5.10;;
19456;SDS011;9867;48.094;11.478;2023-01-19T11:55:51;5.83;;;5.20;;
19456;SDS011;9867;48.094;11.478;2023-01-19T11:58:20;5.53;;;5.03;;
19456;SDS011;9867;48.094;11.478;2023-01-19T12:00:48;5.57;;;4.33;;
19456;SDS011;9867;48.094;11.478;2023-01-19T12:03:21;4.70;;;4.30;;
19456;SDS011;9867;48.094;11.478;2023-01-19T12:05:51;5.17;;;4.50;;
19456;SDS011;9867;48.094;11.478;2023-01-19T12:08:22;5.40;;;4.90;;
19456;SDS011;9867;48.094;11.478;2023-01-19T12:10:53;5.03;;;4.57;;
19456;SDS011;9867;48.094;11.478;2023-01-19T12:13:22;4.60;;;4.30;;
19456;SDS011;9867;48.094;11.478;2023-01-19T12:15:52;6.07;;;4.83;;
19456;SDS011;9867;48.094;11.478;2023-01-19T12:18:23;5.13;;;4.70;;
19456;SDS011;9867;48.094;11.478;2023-01-19T12:20:54;6.27;;;4.77;;
19456;SDS011;9867;48.094;11.478;2023-01-19T12:23:23;5.20;;;4.47;;
19456;SDS011;9867;48.094;11.478;2023-01-19T12:26:03;5.00;;;4.50;;
19456;SDS011;9867;48.094;11.478;2023-01-19T12:28:48;6.43;;;5.20;;
19456;SDS011;9867;48.094;11.478;2023-01-19T12:31:18;7.87;;;5.37;;
19456;SDS011;9867;48.094;11.478;2023-01-19T12:33:47;4.90;;;4.40;;
19456;SDS011;9867;48.094;11.478;2023-01-19T12:39:03;6.03;;;5.10;;
19456;SDS011;9867;48.094;11.478;2023-01-19T12:41:37;7.40;;;5.47;;
19456;SDS011;9867;48.094;11.478;2023-01-19T12:44:21;5.80;;;5.30;;
19456;SDS011;9867;48.094;11.478;2023-01-19T12:46:54;5.67;;;5.10;;
19456;SDS011;9867;48.094;11.478;2023-01-19T12:49:28;6.00;;;5.40;;
19456;SDS011;9867;48.094;11.478;2023-01-19T12:52:18;5.53;;;4.93;;
19456;SDS011;9867;48.094;11.478;2023-01-19T12:54:49;6.40;;;5.50;;
19456;SDS011;9867;48.094;11.478;2023-01-19T12:57:21;5.03;;;4.63;;
19456;SDS011;9867;48.094;11.478;2023-01-19T12:59:54;4.90;;;4.40;;
19456;SDS011;9867;48.094;11.478;2023-01-19T13:05:12;5.87;;;4.50;;
19456;SDS011;9867;48.094;11.478;2023-01-19T13:17:01;6.23;;;4.97;;
19456;SDS011;9867;48.094;11.478;2023-01-19T13:19:42;5.90;;;5.37;;
19456;SDS011;9867;48.094;11.478;2023-01-19T13:25:20;5.67;;;5.17;;
19456;SDS011;9867;48.094;11.478;2023-01-19T13:27:52;6.00;;;5.40;;
19456;SDS011;9867;48.094;11.478;2023-01-19T13:30:19;5.60;;;5.00;;
19456;SDS011;9867;48.094;11.478;2023-01-19T13:32:48;5.57;;;4.80;;
19456;SDS011;9867;48.094;11.478;2023-01-19T13:35:16;6.60;;;5.37;;
19456;SDS011;9867;48.094;11.478;2023-01-19T13:37:45;6.40;;;5.30;;
19456;SDS011;9867;48.094;11.478;2023-01-19T13:40:16;4.83;;;4.30;;
19456;SDS011;9867;48.094;11.478;2023-01-19T13:42:46;5.20;;;4.40;;
19456;SDS011;9867;48.094;11.478;2023-01-19T13:45:16;5.87;;;4.70;;
19456;SDS011;9867;48.094;11.478;2023-01-19T13:47:51;5.13;;;4.50;;
19456;SDS011;9867;48.094;11.478;2023-01-19T13:50:20;5.63;;;4.57;;
19456;SDS011;9867;48.094;11.478;2023-01-19T13:52:49;4.30;;;4.00;;
19456;SDS011;9867;48.094;11.478;2023-01-19T13:55:18;5.43;;;4.37;;
19456;SDS011;9867;48.094;11.478;2023-01-19T13:57:46;4.60;;;3.87;;
19456;SDS011;9867;48.094;11.478;2023-01-19T14:00:15;4.17;;;3.83;;
19456;SDS011;9867;48.094;11.478;2023-01-19T14:02:50;4.53;;;3.77;;
19456;SDS011;9867;48.094;11.478;2023-01-19T14:05:26;4.33;;;3.93;;
19456;SDS011;9867;48.094;11.478;2023-01-19T14:08:05;3.93;;;3.63;;
19456;SDS011;9867;48.094;11.478;2023-01-19T14:10:38;3.90;;;3.53;;
19456;SDS011;9867;48.094;11.478;2023-01-19T14:13:11;10.47;;;3.50;;
19456;SDS011;9867;48.094;11.478;2023-01-19T14:15:40;6.10;;;3.60;;
19456;SDS011;9867;48.094;11.478;2023-01-19T14:18:09;5.10;;;3.70;;
19456;SDS011;9867;48.094;11.478;2023-01-19T14:20:51;3.67;;;3.37;;
19456;SDS011;9867;48.094;11.478;2023-01-19T14:23:34;4.07;;;3.60;;
19456;SDS011;9867;48.094;11.478;2023-01-19T14:26:04;4.10;;;3.70;;
19456;SDS011;9867;48.094;11.478;2023-01-19T14:28:34;4.40;;;3.87;;
19456;SDS011;9867;48.094;11.478;2023-01-19T14:31:16;5.77;;;4.23;;
19456;SDS011;9867;48.094;11.478;2023-01-19T14:33:45;3.93;;;3.53;;
19456;SDS011;9867;48.094;11.478;2023-01-19T14:36:18;4.47;;;4.07;;
19456;SDS011;9867;48.094;11.478;2023-01-19T14:38:53;8.33;;;3.93;;
19456;SDS011;9867;48.094;11.478;2023-01-19T14:41:23;4.53;;;4.03;;
19456;SDS011;9867;48.094;11.478;2023-01-19T14:43:52;4.70;;;4.30;;
19456;SDS011;9867;48.094;11.478;2023-01-19T14:46:20;4.73;;;3.90;;
19456;SDS011;9867;48.094;11.478;2023-01-19T14:48:48;6.20;;;4.33;;
19456;SDS011;9867;48.094;11.478;2023-01-19T14:51:17;6.43;;;5.00;;
19456;SDS011;9867;48.094;11.478;2023-01-19T14:53:47;8.97;;;4.60;;
19456;SDS011;9867;48.094;11.478;2023-01-19T14:56:22;6.73;;;4.73;;
19456;SDS011;9867;48.094;11.478;2023-01-19T14:58:50;5.17;;;4.67;;
19456;SDS011;9867;48.094;11.478;2023-01-19T15:01:17;5.80;;;4.73;;
19456;SDS011;9867;48.094;11.478;2023-01-19T15:03:43;4.83;;;4.40;;
19456;SDS011;9867;48.094;11.478;2023-01-19T15:06:11;5.30;;;4.80;;
19456;SDS011;9867;48.094;11.478;2023-01-19T15:08:40;5.93;;;4.90;;
19456;SDS011;9867;48.094;11.478;2023-01-19T15:11:08;5.20;;;4.70;;
19456;SDS011;9867;48.094;11.478;2023-01-19T15:13:36;5.63;;;4.87;;
19456;SDS011;9867;48.094;11.478;2023-01-19T15:16:04;5.93;;;5.33;;